sensor_id;sensor_type;location;lat;lon;timestamp;P1;durP1;ratioP1;P2;durP2;ratioP2
17917;SDS011;9084;50.956;3.106;2023-03-23T00:00:21;2.13;;;1.25;;
17917;SDS011;9084;50.956;3.106;2023-03-23T00:02:49;2.72;;;1.10;;
17917;SDS011;9084;50.956;3.106;2023-03-23T00:05:15;1.42;;;1.25;;
17917;SDS011;9084;50.956;3.106;2023-03-23T00:07:45;1.40;;;1.25;;
17917;SDS011;9084;50.956;3.106;2023-03-23T00:10:17;2.15;;;1.42;;
17917;SDS011;9084;50.956;3.106;2023-03-23T00:12:45;1.38;;;1.00;;
17917;SDS011;9084;50.956;3.106;2023-03-23T00:15:14;1.33;;;1.23;;
17917;SDS011;9084;50.956;3.106;2023-03-23T00:17:41;1.58;;;1.08;;
17917;SDS011;9084;50.956;3.106;2023-03-23T00:20:10;1.30;;;1.20;;
17917;SDS011;9084;50.956;3.106;2023-03-23T00:22:37;1.23;;;1.00;;
17917;SDS011;9084;50.956;3.106;2023-03-23T00:25:04;1.60;;;1.10;;
17917;SDS011;9084;50.956;3.106;2023-03-23T00:27:30;1.40;;;1.30;;
17917;SDS011;9084;50.956;3.106;2023-03-23T00:29:55;1.92;;;1.30;;
17917;SDS011;9084;50.956;3.106;2023-03-23T00:32:24;1.50;;;1.20;;
17917;SDS011;9084;50.956;3.106;2023-03-23T00:34:56;2.20;;;1.00;;
17917;SDS011;9084;50.956;3.106;2023-03-23T00:37:25;1.67;;;1.27;;
17917;SDS011;9084;50.956;3.106;2023-03-23T00:39:53;2.13;;;1.08;;
17917;SDS011;9084;50.956;3.106;2023-03-23T00:42:22;1.30;;;1.20;;
17917;SDS011;9084;50.956;3.106;2023-03-23T00:44:48;1.77;;;1.17;;
17917;SDS011;9084;50.956;3.106;2023-03-23T00:47:25;1.50;;;0.95;;
17917;SDS011;9084;50.956;3.106;2023-03-23T00:49:50;1.17;;;1.08;;
17917;SDS011;9084;50.956;3.106;2023-03-23T00:52:17;0.85;;;0.80;;
17917;SDS011;9084;50.956;3.106;2023-03-23T00:54:45;3.15;;;1.00;;
17917;SDS011;9084;50.956;3.106;2023-03-23T00:57:14;2.25;;;0.80;;
17917;SDS011;9084;50.956;3.106;2023-03-23T00:59:44;0.90;;;0.90;;
17917;SDS011;9084;50.956;3.106;2023-03-23T01:02:10;1.70;;;0.95;;
17917;SDS011;9084;50.956;3.106;2023-03-23T01:04:38;1.20;;;1.00;;
17917;SDS011;9084;50.956;3.106;2023-03-23T01:07:04;1.08;;;0.93;;
17917;SDS011;9084;50.956;3.106;2023-03-23T01:09:29;1.65;;;1.10;;
17917;SDS011;9084;50.956;3.106;2023-03-23T01:11:55;1.20;;;0.93;;
17917;SDS011;9084;50.956;3.106;2023-03-23T01:14:23;0.80;;;0.80;;
17917;SDS011;9084;50.956;3.106;2023-03-23T01:16:50;1.42;;;0.90;;
17917;SDS011;9084;50.956;3.106;2023-03-23T01:19:16;1.02;;;0.90;;
17917;SDS011;9084;50.956;3.106;2023-03-23T01:21:44;1.25;;;1.00;;
17917;SDS011;9084;50.956;3.106;2023-03-23T01:24:12;1.08;;;0.80;;
17917;SDS011;9084;50.956;3.106;2023-03-23T01:26:38;2.80;;;0.90;;
17917;SDS011;9084;50.956;3.106;2023-03-23T01:29:06;1.10;;;0.70;;
17917;SDS011;9084;50.956;3.106;2023-03-23T01:31:32;2.75;;;0.80;;
17917;SDS011;9084;50.956;3.106;2023-03-23T01:34:01;1.20;;;0.82;;
17917;SDS011;9084;50.956;3.106;2023-03-23T01:36:28;0.98;;;0.70;;
17917;SDS011;9084;50.956;3.106;2023-03-23T01:38:57;2.22;;;1.10;;
17917;SDS011;9084;50.956;3.106;2023-03-23T01:41:25;1.80;;;0.63;;
17917;SDS011;9084;50.956;3.106;2023-03-23T01:46:22;1.35;;;0.70;;
17917;SDS011;9084;50.956;3.106;2023-03-23T01:48:54;1.25;;;1.00;;
17917;SDS011;9084;50.956;3.106;2023-03-23T01:51:22;1.55;;;0.77;;
17917;SDS011;9084;50.956;3.106;2023-03-23T01:53:55;1.30;;;0.80;;
17917;SDS011;9084;50.956;3.106;2023-03-23T01:56:28;1.83;;;0.63;;
17917;SDS011;9084;50.956;3.106;2023-03-23T01:59:12;0.82;;;0.70;;
17917;SDS011;9084;50.956;3.106;2023-03-23T02:01:43;1.67;;;0.90;;
17917;SDS011;9084;50.956;3.106;2023-03-23T02:04:14;2.33;;;0.77;;
17917;SDS011;9084;50.956;3.106;2023-03-23T02:06:44;2.28;;;0.82;;
17917;SDS011;9084;50.956;3.106;2023-03-23T02:09:12;1.77;;;0.55;;
17917;SDS011;9084;50.956;3.106;2023-03-23T02:11:39;1.40;;;0.80;;
17917;SDS011;9084;50.956;3.106;2023-03-23T02:14:05;1.70;;;1.00;;
17917;SDS011;9084;50.956;3.106;2023-03-23T02:26:58;2.20;;;0.80;;
17917;SDS011;9084;50.956;3.106;2023-03-23T02:35:01;1.27;;;0.75;;
17917;SDS011;9084;50.956;3.106;2023-03-23T02:40:04;3.00;;;1.05;;
17917;SDS011;9084;50.956;3.106;2023-03-23T02:42:37;3.17;;;1.65;;
17917;SDS011;9084;50.956;3.106;2023-03-23T02:45:10;2.13;;;1.08;;
17917;SDS011;9084;50.956;3.106;2023-03-23T02:47:40;2.17;;;1.10;;
17917;SDS011;9084;50.956;3.106;2023-03-23T02:50:07;2.13;;;0.90;;
17917;SDS011;9084;50.956;3.106;2023-03-23T02:52:40;3.85;;;1.55;;
17917;SDS011;9084;50.956;3.106;2023-03-23T02:55:08;4.00;;;1.08;;
17917;SDS011;9084;50.956;3.106;2023-03-23T02:57:36;2.70;;;1.17;;
17917;SDS011;9084;50.956;3.106;2023-03-23T03:00:06;4.75;;;1.70;;
17917;SDS011;9084;50.956;3.106;2023-03-23T03:02:43;4.20;;;1.20;;
17917;SDS011;9084;50.956;3.106;2023-03-23T03:10:16;3.88;;;1.27;;
17917;SDS011;9084;50.956;3.106;2023-03-23T03:12:59;1.90;;;1.20;;
17917;SDS011;9084;50.956;3.106;2023-03-23T03:18:16;3.38;;;1.30;;
17917;SDS011;9084;50.956;3.106;2023-03-23T03:20:49;2.20;;;1.20;;
17917;SDS011;9084;50.956;3.106;2023-03-23T03:23:20;4.75;;;1.42;;
17917;SDS011;9084;50.956;3.106;2023-03-23T03:25:47;2.75;;;1.30;;
17917;SDS011;9084;50.956;3.106;2023-03-23T03:28:16;3.67;;;1.38;;
17917;SDS011;9084;50.956;3.106;2023-03-23T03:30:46;3.63;;;0.95;;
17917;SDS011;9084;50.956;3.106;2023-03-23T03:33:17;3.80;;;1.52;;
17917;SDS011;9084;50.956;3.106;2023-03-23T03:35:45;2.90;;;1.35;;
17917;SDS011;9084;50.956;3.106;2023-03-23T03:38:14;4.88;;;1.92;;
17917;SDS011;9084;50.956;3.106;2023-03-23T03:40:40;5.50;;;1.50;;
17917;SDS011;9084;50.956;3.106;2023-03-23T03:43:06;3.38;;;1.10;;
17917;SDS011;9084;50.956;3.106;2023-03-23T03:45:34;4.85;;;1.40;;
17917;SDS011;9084;50.956;3.106;2023-03-23T03:48:04;4.25;;;1.40;;
17917;SDS011;9084;50.956;3.106;2023-03-23T03:50:30;3.10;;;1.10;;
17917;SDS011;9084;50.956;3.106;2023-03-23T03:52:57;4.82;;;1.33;;
17917;SDS011;9084;50.956;3.106;2023-03-23T03:55:23;4.93;;;1.60;;
17917;SDS011;9084;50.956;3.106;2023-03-23T03:57:48;4.70;;;1.30;;
17917;SDS011;9084;50.956;3.106;2023-03-23T04:00:14;3.83;;;1.38;;
17917;SDS011;9084;50.956;3.106;2023-03-23T04:02:41;7.22;;;1.70;;
17917;SDS011;9084;50.956;3.106;2023-03-23T04:05:09;4.53;;;1.30;;
17917;SDS011;9084;50.956;3.106;2023-03-23T04:07:35;3.53;;;1.30;;
17917;SDS011;9084;50.956;3.106;2023-03-23T04:10:06;5.32;;;1.73;;
17917;SDS011;9084;50.956;3.106;2023-03-23T04:12:34;5.15;;;1.55;;
17917;SDS011;9084;50.956;3.106;2023-03-23T04:15:01;5.72;;;1.80;;
17917;SDS011;9084;50.956;3.106;2023-03-23T04:17:30;6.28;;;1.83;;
17917;SDS011;9084;50.956;3.106;2023-03-23T04:19:58;7.18;;;2.15;;
17917;SDS011;9084;50.956;3.106;2023-03-23T04:22:32;4.75;;;1.75;;
17917;SDS011;9084;50.956;3.106;2023-03-23T04:25:01;5.93;;;1.85;;
17917;SDS011;9084;50.956;3.106;2023-03-23T04:27:30;7.38;;;1.80;;
17917;SDS011;9084;50.956;3.106;2023-03-23T04:29:56;4.03;;;1.23;;
17917;SDS011;9084;50.956;3.106;2023-03-23T04:32:26;4.38;;;1.45;;
17917;SDS011;9084;50.956;3.106;2023-03-23T04:34:54;7.82;;;1.90;;
17917;SDS011;9084;50.956;3.106;2023-03-23T04:37:27;4.07;;;1.50;;
17917;SDS011;9084;50.956;3.106;2023-03-23T04:39:58;9.13;;;2.90;;
17917;SDS011;9084;50.956;3.106;2023-03-23T04:42:34;6.60;;;1.90;;
17917;SDS011;9084;50.956;3.106;2023-03-23T04:45:00;5.25;;;1.85;;
17917;SDS011;9084;50.956;3.106;2023-03-23T04:47:27;4.05;;;1.50;;
17917;SDS011;9084;50.956;3.106;2023-03-23T04:49:55;5.55;;;1.88;;
17917;SDS011;9084;50.956;3.106;2023-03-23T04:52:26;7.40;;;2.00;;
17917;SDS011;9084;50.956;3.106;2023-03-23T04:54:53;6.80;;;1.88;;
17917;SDS011;9084;50.956;3.106;2023-03-23T04:57:21;5.53;;;1.85;;
17917;SDS011;9084;50.956;3.106;2023-03-23T04:59:47;3.35;;;1.83;;
17917;SDS011;9084;50.956;3.106;2023-03-23T05:02:13;3.28;;;1.65;;
17917;SDS011;9084;50.956;3.106;2023-03-23T05:04:42;5.00;;;1.73;;
17917;SDS011;9084;50.956;3.106;2023-03-23T05:07:10;6.25;;;1.83;;
17917;SDS011;9084;50.956;3.106;2023-03-23T05:09:36;4.47;;;1.70;;
17917;SDS011;9084;50.956;3.106;2023-03-23T05:12:06;3.83;;;1.50;;
17917;SDS011;9084;50.956;3.106;2023-03-23T05:14:33;6.90;;;1.98;;
17917;SDS011;9084;50.956;3.106;2023-03-23T05:16:59;7.18;;;2.00;;
17917;SDS011;9084;50.956;3.106;2023-03-23T05:19:28;7.40;;;2.72;;
17917;SDS011;9084;50.956;3.106;2023-03-23T05:22:00;3.92;;;1.83;;
17917;SDS011;9084;50.956;3.106;2023-03-23T05:24:30;4.43;;;1.33;;
17917;SDS011;9084;50.956;3.106;2023-03-23T05:26:58;4.10;;;1.27;;
17917;SDS011;9084;50.956;3.106;2023-03-23T05:29:24;4.68;;;1.35;;
17917;SDS011;9084;50.956;3.106;2023-03-23T05:31:50;2.75;;;0.93;;
17917;SDS011;9084;50.956;3.106;2023-03-23T05:34:18;5.72;;;1.30;;
17917;SDS011;9084;50.956;3.106;2023-03-23T05:36:46;4.28;;;1.48;;
17917;SDS011;9084;50.956;3.106;2023-03-23T05:39:12;4.25;;;1.10;;
17917;SDS011;9084;50.956;3.106;2023-03-23T05:41:44;4.38;;;1.10;;
17917;SDS011;9084;50.956;3.106;2023-03-23T05:44:13;2.78;;;1.10;;
17917;SDS011;9084;50.956;3.106;2023-03-23T05:46:41;3.63;;;0.90;;
17917;SDS011;9084;50.956;3.106;2023-03-23T05:49:08;2.20;;;1.00;;
17917;SDS011;9084;50.956;3.106;2023-03-23T05:51:34;1.63;;;0.70;;
17917;SDS011;9084;50.956;3.106;2023-03-23T05:54:00;4.07;;;1.00;;
17917;SDS011;9084;50.956;3.106;2023-03-23T05:56:26;3.17;;;0.88;;
17917;SDS011;9084;50.956;3.106;2023-03-23T05:58:56;1.63;;;0.73;;
17917;SDS011;9084;50.956;3.106;2023-03-23T06:01:25;3.85;;;0.95;;
17917;SDS011;9084;50.956;3.106;2023-03-23T06:03:51;2.58;;;1.02;;
17917;SDS011;9084;50.956;3.106;2023-03-23T06:06:19;4.25;;;1.30;;
17917;SDS011;9084;50.956;3.106;2023-03-23T06:08:47;3.78;;;1.20;;
17917;SDS011;9084;50.956;3.106;2023-03-23T06:11:15;3.35;;;1.00;;
17917;SDS011;9084;50.956;3.106;2023-03-23T06:13:44;2.70;;;1.00;;
17917;SDS011;9084;50.956;3.106;2023-03-23T06:16:12;3.58;;;0.98;;
17917;SDS011;9084;50.956;3.106;2023-03-23T06:18:38;2.80;;;1.00;;
17917;SDS011;9084;50.956;3.106;2023-03-23T06:21:08;4.00;;;1.08;;
17917;SDS011;9084;50.956;3.106;2023-03-23T06:23:37;3.25;;;1.00;;
17917;SDS011;9084;50.956;3.106;2023-03-23T06:26:04;3.45;;;1.00;;
17917;SDS011;9084;50.956;3.106;2023-03-23T06:28:33;4.43;;;1.13;;
17917;SDS011;9084;50.956;3.106;2023-03-23T06:31:00;2.70;;;0.85;;
17917;SDS011;9084;50.956;3.106;2023-03-23T06:33:31;3.17;;;1.05;;
17917;SDS011;9084;50.956;3.106;2023-03-23T06:36:03;3.00;;;0.90;;
17917;SDS011;9084;50.956;3.106;2023-03-23T06:38:30;3.63;;;0.80;;
17917;SDS011;9084;50.956;3.106;2023-03-23T06:40:56;2.65;;;0.93;;
17917;SDS011;9084;50.956;3.106;2023-03-23T06:43:22;3.60;;;1.20;;
17917;SDS011;9084;50.956;3.106;2023-03-23T06:45:51;2.95;;;0.93;;
17917;SDS011;9084;50.956;3.106;2023-03-23T06:48:17;1.55;;;0.60;;
17917;SDS011;9084;50.956;3.106;2023-03-23T06:50:46;4.00;;;1.33;;
17917;SDS011;9084;50.956;3.106;2023-03-23T06:53:14;3.92;;;1.17;;
17917;SDS011;9084;50.956;3.106;2023-03-23T06:55:42;3.50;;;0.95;;
17917;SDS011;9084;50.956;3.106;2023-03-23T06:58:08;2.28;;;1.02;;
17917;SDS011;9084;50.956;3.106;2023-03-23T07:00:35;3.80;;;1.48;;
17917;SDS011;9084;50.956;3.106;2023-03-23T07:03:03;3.30;;;1.08;;
17917;SDS011;9084;50.956;3.106;2023-03-23T07:05:29;4.88;;;1.08;;
17917;SDS011;9084;50.956;3.106;2023-03-23T07:07:57;2.58;;;0.82;;
17917;SDS011;9084;50.956;3.106;2023-03-23T07:10:27;2.10;;;0.93;;
17917;SDS011;9084;50.956;3.106;2023-03-23T07:12:56;3.67;;;1.05;;
17917;SDS011;9084;50.956;3.106;2023-03-23T07:15:22;4.38;;;0.77;;
17917;SDS011;9084;50.956;3.106;2023-03-23T07:17:50;2.75;;;1.38;;
17917;SDS011;9084;50.956;3.106;2023-03-23T07:20:19;3.08;;;1.00;;
17917;SDS011;9084;50.956;3.106;2023-03-23T07:22:44;2.33;;;1.05;;
17917;SDS011;9084;50.956;3.106;2023-03-23T07:25:10;2.55;;;1.08;;
17917;SDS011;9084;50.956;3.106;2023-03-23T07:27:36;4.95;;;0.93;;
17917;SDS011;9084;50.956;3.106;2023-03-23T07:30:04;3.95;;;1.08;;
17917;SDS011;9084;50.956;3.106;2023-03-23T07:32:33;3.00;;;0.80;;
17917;SDS011;9084;50.956;3.106;2023-03-23T07:34:59;2.33;;;1.08;;
17917;SDS011;9084;50.956;3.106;2023-03-23T07:37:25;2.22;;;0.60;;
17917;SDS011;9084;50.956;3.106;2023-03-23T07:39:53;4.95;;;1.00;;
17917;SDS011;9084;50.956;3.106;2023-03-23T07:42:23;3.70;;;1.02;;
17917;SDS011;9084;50.956;3.106;2023-03-23T07:44:52;2.08;;;0.90;;
17917;SDS011;9084;50.956;3.106;2023-03-23T07:47:18;3.63;;;0.90;;
17917;SDS011;9084;50.956;3.106;2023-03-23T07:49:46;6.15;;;1.13;;
17917;SDS011;9084;50.956;3.106;2023-03-23T07:52:12;2.63;;;0.95;;
17917;SDS011;9084;50.956;3.106;2023-03-23T07:54:42;5.35;;;0.90;;
17917;SDS011;9084;50.956;3.106;2023-03-23T07:57:09;4.95;;;1.35;;
17917;SDS011;9084;50.956;3.106;2023-03-23T07:59:37;4.28;;;1.55;;
17917;SDS011;9084;50.956;3.106;2023-03-23T08:02:07;2.42;;;0.80;;
17917;SDS011;9084;50.956;3.106;2023-03-23T08:04:34;4.28;;;1.23;;
17917;SDS011;9084;50.956;3.106;2023-03-23T08:07:04;2.67;;;1.30;;
17917;SDS011;9084;50.956;3.106;2023-03-23T08:09:31;2.83;;;1.13;;
17917;SDS011;9084;50.956;3.106;2023-03-23T08:11:56;3.22;;;1.30;;
17917;SDS011;9084;50.956;3.106;2023-03-23T08:14:25;6.05;;;1.35;;
17917;SDS011;9084;50.956;3.106;2023-03-23T08:16:53;4.43;;;1.33;;
17917;SDS011;9084;50.956;3.106;2023-03-23T08:19:23;4.07;;;1.55;;
17917;SDS011;9084;50.956;3.106;2023-03-23T08:21:49;2.75;;;1.23;;
17917;SDS011;9084;50.956;3.106;2023-03-23T08:24:15;4.18;;;1.10;;
17917;SDS011;9084;50.956;3.106;2023-03-23T08:26:41;3.42;;;1.20;;
17917;SDS011;9084;50.956;3.106;2023-03-23T08:29:07;5.00;;;1.48;;
17917;SDS011;9084;50.956;3.106;2023-03-23T08:31:33;3.38;;;1.17;;
17917;SDS011;9084;50.956;3.106;2023-03-23T08:34:03;2.42;;;1.00;;
17917;SDS011;9084;50.956;3.106;2023-03-23T08:36:33;3.97;;;1.30;;
17917;SDS011;9084;50.956;3.106;2023-03-23T08:39:02;7.13;;;1.80;;
17917;SDS011;9084;50.956;3.106;2023-03-23T08:41:30;4.53;;;0.90;;
17917;SDS011;9084;50.956;3.106;2023-03-23T08:43:58;4.28;;;1.10;;
17917;SDS011;9084;50.956;3.106;2023-03-23T08:46:24;2.72;;;1.42;;
17917;SDS011;9084;50.956;3.106;2023-03-23T08:48:52;3.88;;;1.15;;
17917;SDS011;9084;50.956;3.106;2023-03-23T08:51:19;4.15;;;1.48;;
17917;SDS011;9084;50.956;3.106;2023-03-23T08:53:45;3.17;;;1.38;;
17917;SDS011;9084;50.956;3.106;2023-03-23T08:56:14;3.38;;;1.13;;
17917;SDS011;9084;50.956;3.106;2023-03-23T08:58:39;3.63;;;1.40;;
17917;SDS011;9084;50.956;3.106;2023-03-23T09:01:06;3.80;;;1.10;;
17917;SDS011;9084;50.956;3.106;2023-03-23T09:03:36;4.40;;;1.50;;
17917;SDS011;9084;50.956;3.106;2023-03-23T09:06:03;2.80;;;1.00;;
17917;SDS011;9084;50.956;3.106;2023-03-23T09:08:30;4.65;;;1.20;;
17917;SDS011;9084;50.956;3.106;2023-03-23T09:11:04;2.95;;;1.10;;
17917;SDS011;9084;50.956;3.106;2023-03-23T09:13:33;2.95;;;1.33;;
17917;SDS011;9084;50.956;3.106;2023-03-23T09:16:00;4.40;;;1.38;;
17917;SDS011;9084;50.956;3.106;2023-03-23T09:18:26;4.53;;;1.35;;
17917;SDS011;9084;50.956;3.106;2023-03-23T09:20:52;5.03;;;1.67;;
17917;SDS011;9084;50.956;3.106;2023-03-23T09:23:21;3.63;;;1.02;;
17917;SDS011;9084;50.956;3.106;2023-03-23T09:25:47;4.55;;;1.40;;
17917;SDS011;9084;50.956;3.106;2023-03-23T09:28:18;6.38;;;1.60;;
17917;SDS011;9084;50.956;3.106;2023-03-23T09:30:45;3.28;;;1.10;;
17917;SDS011;9084;50.956;3.106;2023-03-23T09:33:12;4.43;;;1.40;;
17917;SDS011;9084;50.956;3.106;2023-03-23T09:35:40;4.32;;;1.83;;
17917;SDS011;9084;50.956;3.106;2023-03-23T09:38:09;4.18;;;1.50;;
17917;SDS011;9084;50.956;3.106;2023-03-23T09:40:55;5.20;;;1.90;;
17917;SDS011;9084;50.956;3.106;2023-03-23T09:49:10;3.15;;;1.70;;
17917;SDS011;9084;50.956;3.106;2023-03-23T09:51:48;5.43;;;1.70;;
17917;SDS011;9084;50.956;3.106;2023-03-23T09:54:26;3.67;;;1.90;;
17917;SDS011;9084;50.956;3.106;2023-03-23T09:56:59;4.22;;;1.92;;
17917;SDS011;9084;50.956;3.106;2023-03-23T10:02:15;6.38;;;1.73;;
17917;SDS011;9084;50.956;3.106;2023-03-23T10:04:51;5.72;;;1.33;;
17917;SDS011;9084;50.956;3.106;2023-03-23T10:07:21;4.38;;;1.73;;
17917;SDS011;9084;50.956;3.106;2023-03-23T10:09:54;6.80;;;1.73;;
17917;SDS011;9084;50.956;3.106;2023-03-23T10:12:27;6.55;;;2.35;;
17917;SDS011;9084;50.956;3.106;2023-03-23T10:15:32;6.90;;;2.10;;
17917;SDS011;9084;50.956;3.106;2023-03-23T10:29:36;4.18;;;1.77;;
17917;SDS011;9084;50.956;3.106;2023-03-23T10:32:13;6.63;;;2.20;;
17917;SDS011;9084;50.956;3.106;2023-03-23T10:34:43;6.95;;;2.20;;
17917;SDS011;9084;50.956;3.106;2023-03-23T10:37:34;5.82;;;2.60;;
17917;SDS011;9084;50.956;3.106;2023-03-23T10:40:04;5.32;;;2.10;;
17917;SDS011;9084;50.956;3.106;2023-03-23T10:42:35;5.78;;;2.20;;
17917;SDS011;9084;50.956;3.106;2023-03-23T10:50:42;9.07;;;2.25;;
17917;SDS011;9084;50.956;3.106;2023-03-23T10:53:16;8.00;;;2.63;;
17917;SDS011;9084;50.956;3.106;2023-03-23T10:55:49;4.28;;;1.95;;
17917;SDS011;9084;50.956;3.106;2023-03-23T10:58:25;5.20;;;2.00;;
17917;SDS011;9084;50.956;3.106;2023-03-23T11:00:54;5.45;;;2.33;;
17917;SDS011;9084;50.956;3.106;2023-03-23T11:05:50;5.53;;;2.40;;
17917;SDS011;9084;50.956;3.106;2023-03-23T11:08:22;10.00;;;2.83;;
17917;SDS011;9084;50.956;3.106;2023-03-23T11:13:33;4.47;;;2.30;;
17917;SDS011;9084;50.956;3.106;2023-03-23T11:16:00;6.03;;;2.22;;
17917;SDS011;9084;50.956;3.106;2023-03-23T11:18:42;4.97;;;1.73;;
17917;SDS011;9084;50.956;3.106;2023-03-23T11:21:08;7.65;;;2.42;;
17917;SDS011;9084;50.956;3.106;2023-03-23T11:23:37;5.57;;;2.30;;
17917;SDS011;9084;50.956;3.106;2023-03-23T11:28:51;8.70;;;2.60;;
17917;SDS011;9084;50.956;3.106;2023-03-23T11:31:33;6.70;;;2.50;;
17917;SDS011;9084;50.956;3.106;2023-03-23T11:36:35;8.25;;;2.72;;
17917;SDS011;9084;50.956;3.106;2023-03-23T11:39:26;5.03;;;2.10;;
17917;SDS011;9084;50.956;3.106;2023-03-23T11:41:54;6.65;;;3.20;;
17917;SDS011;9084;50.956;3.106;2023-03-23T11:44:31;7.65;;;2.67;;
17917;SDS011;9084;50.956;3.106;2023-03-23T11:52:15;7.95;;;3.05;;
17917;SDS011;9084;50.956;3.106;2023-03-23T11:55:19;9.45;;;2.83;;
17917;SDS011;9084;50.956;3.106;2023-03-23T11:57:46;7.40;;;2.42;;
17917;SDS011;9084;50.956;3.106;2023-03-23T12:00:16;8.10;;;2.85;;
17917;SDS011;9084;50.956;3.106;2023-03-23T12:02:56;8.65;;;2.53;;
17917;SDS011;9084;50.956;3.106;2023-03-23T12:05:49;5.60;;;2.30;;
17917;SDS011;9084;50.956;3.106;2023-03-23T12:19:25;9.75;;;2.80;;
17917;SDS011;9084;50.956;3.106;2023-03-23T12:30:15;7.07;;;2.63;;
17917;SDS011;9084;50.956;3.106;2023-03-23T12:43:26;6.40;;;2.65;;
17917;SDS011;9084;50.956;3.106;2023-03-23T12:46:19;7.65;;;2.58;;
17917;SDS011;9084;50.956;3.106;2023-03-23T12:57:29;8.32;;;2.78;;
17917;SDS011;9084;50.956;3.106;2023-03-23T13:02:44;10.45;;;2.67;;
17917;SDS011;9084;50.956;3.106;2023-03-23T13:05:28;8.05;;;2.30;;
17917;SDS011;9084;50.956;3.106;2023-03-23T13:10:53;10.25;;;2.67;;
17917;SDS011;9084;50.956;3.106;2023-03-23T13:13:24;13.38;;;3.15;;
17917;SDS011;9084;50.956;3.106;2023-03-23T13:15:55;5.88;;;3.00;;
17917;SDS011;9084;50.956;3.106;2023-03-23T13:18:55;6.53;;;2.75;;
17917;SDS011;9084;50.956;3.106;2023-03-23T13:26:30;6.55;;;2.38;;
17917;SDS011;9084;50.956;3.106;2023-03-23T13:29:00;7.63;;;2.88;;
17917;SDS011;9084;50.956;3.106;2023-03-23T13:31:35;10.35;;;3.15;;
17917;SDS011;9084;50.956;3.106;2023-03-23T13:34:45;8.73;;;2.80;;
17917;SDS011;9084;50.956;3.106;2023-03-23T13:36:59;6.47;;;2.70;;
17917;SDS011;9084;50.956;3.106;2023-03-23T13:49:56;6.60;;;2.40;;
17917;SDS011;9084;50.956;3.106;2023-03-23T14:05:35;5.88;;;2.25;;
17917;SDS011;9084;50.956;3.106;2023-03-23T14:10:42;6.82;;;2.15;;
17917;SDS011;9084;50.956;3.106;2023-03-23T14:16:20;7.40;;;2.78;;
17917;SDS011;9084;50.956;3.106;2023-03-23T14:19:00;7.60;;;2.10;;
17917;SDS011;9084;50.956;3.106;2023-03-23T14:21:35;6.25;;;2.58;;
17917;SDS011;9084;50.956;3.106;2023-03-23T14:24:05;4.40;;;1.85;;
17917;SDS011;9084;50.956;3.106;2023-03-23T14:26:35;6.95;;;2.30;;
17917;SDS011;9084;50.956;3.106;2023-03-23T14:29:02;6.75;;;2.28;;
17917;SDS011;9084;50.956;3.106;2023-03-23T14:31:31;5.07;;;1.98;;
17917;SDS011;9084;50.956;3.106;2023-03-23T14:34:04;6.07;;;2.05;;
17917;SDS011;9084;50.956;3.106;2023-03-23T14:36:41;6.88;;;2.60;;
17917;SDS011;9084;50.956;3.106;2023-03-23T14:41:42;8.80;;;3.05;;
17917;SDS011;9084;50.956;3.106;2023-03-23T14:44:12;7.90;;;2.67;;
17917;SDS011;9084;50.956;3.106;2023-03-23T14:46:41;5.50;;;2.08;;
17917;SDS011;9084;50.956;3.106;2023-03-23T14:49:12;7.75;;;2.45;;
17917;SDS011;9084;50.956;3.106;2023-03-23T14:51:54;6.38;;;2.75;;
17917;SDS011;9084;50.956;3.106;2023-03-23T14:54:24;5.30;;;2.20;;
17917;SDS011;9084;50.956;3.106;2023-03-23T14:56:52;5.43;;;2.25;;
17917;SDS011;9084;50.956;3.106;2023-03-23T14:59:18;6.28;;;2.25;;
17917;SDS011;9084;50.956;3.106;2023-03-23T15:01:45;6.00;;;2.25;;
17917;SDS011;9084;50.956;3.106;2023-03-23T15:04:17;4.25;;;2.15;;
17917;SDS011;9084;50.956;3.106;2023-03-23T15:06:51;7.50;;;2.40;;
17917;SDS011;9084;50.956;3.106;2023-03-23T15:09:21;6.68;;;2.08;;
17917;SDS011;9084;50.956;3.106;2023-03-23T15:11:55;5.28;;;2.00;;
17917;SDS011;9084;50.956;3.106;2023-03-23T15:14:32;5.95;;;1.80;;
17917;SDS011;9084;50.956;3.106;2023-03-23T15:17:19;7.65;;;2.10;;
17917;SDS011;9084;50.956;3.106;2023-03-23T15:19:52;7.00;;;2.63;;
17917;SDS011;9084;50.956;3.106;2023-03-23T15:25:28;6.10;;;2.10;;
17917;SDS011;9084;50.956;3.106;2023-03-23T15:27:49;7.75;;;2.53;;
17917;SDS011;9084;50.956;3.106;2023-03-23T15:30:45;6.68;;;1.98;;
17917;SDS011;9084;50.956;3.106;2023-03-23T15:33:13;6.05;;;2.30;;
17917;SDS011;9084;50.956;3.106;2023-03-23T15:35:41;4.47;;;2.00;;
17917;SDS011;9084;50.956;3.106;2023-03-23T15:40:55;7.22;;;2.58;;
17917;SDS011;9084;50.956;3.106;2023-03-23T15:43:25;10.07;;;2.83;;
17917;SDS011;9084;50.956;3.106;2023-03-23T15:46:04;5.10;;;2.08;;
17917;SDS011;9084;50.956;3.106;2023-03-23T15:48:49;6.00;;;2.22;;
17917;SDS011;9084;50.956;3.106;2023-03-23T15:51:41;7.32;;;2.22;;
17917;SDS011;9084;50.956;3.106;2023-03-23T15:54:14;5.32;;;2.33;;
17917;SDS011;9084;50.956;3.106;2023-03-23T15:56:41;5.82;;;2.13;;
17917;SDS011;9084;50.956;3.106;2023-03-23T15:59:13;5.75;;;1.80;;
17917;SDS011;9084;50.956;3.106;2023-03-23T16:01:41;5.70;;;2.10;;
17917;SDS011;9084;50.956;3.106;2023-03-23T16:04:11;5.47;;;1.60;;
17917;SDS011;9084;50.956;3.106;2023-03-23T16:06:39;7.13;;;1.52;;
17917;SDS011;9084;50.956;3.106;2023-03-23T16:09:06;6.40;;;1.80;;
17917;SDS011;9084;50.956;3.106;2023-03-23T16:11:38;5.13;;;1.88;;
17917;SDS011;9084;50.956;3.106;2023-03-23T16:14:04;5.93;;;1.95;;
17917;SDS011;9084;50.956;3.106;2023-03-23T16:16:35;4.20;;;1.65;;
17917;SDS011;9084;50.956;3.106;2023-03-23T16:19:14;4.68;;;1.75;;
17917;SDS011;9084;50.956;3.106;2023-03-23T16:21:40;4.80;;;1.85;;
17917;SDS011;9084;50.956;3.106;2023-03-23T16:24:09;5.72;;;1.75;;
17917;SDS011;9084;50.956;3.106;2023-03-23T16:26:36;4.85;;;2.30;;
17917;SDS011;9084;50.956;3.106;2023-03-23T16:29:14;7.03;;;2.25;;
17917;SDS011;9084;50.956;3.106;2023-03-23T16:31:41;4.80;;;1.58;;
17917;SDS011;9084;50.956;3.106;2023-03-23T16:34:09;7.82;;;1.80;;
17917;SDS011;9084;50.956;3.106;2023-03-23T16:36:37;4.47;;;1.77;;
17917;SDS011;9084;50.956;3.106;2023-03-23T16:39:03;6.22;;;2.00;;
17917;SDS011;9084;50.956;3.106;2023-03-23T16:41:29;4.20;;;1.98;;
17917;SDS011;9084;50.956;3.106;2023-03-23T16:43:57;5.57;;;2.30;;
17917;SDS011;9084;50.956;3.106;2023-03-23T16:46:23;5.05;;;2.03;;
17917;SDS011;9084;50.956;3.106;2023-03-23T16:48:49;9.30;;;2.22;;
17917;SDS011;9084;50.956;3.106;2023-03-23T16:51:16;4.75;;;1.88;;
17917;SDS011;9084;50.956;3.106;2023-03-23T16:53:42;8.55;;;2.25;;
17917;SDS011;9084;50.956;3.106;2023-03-23T16:56:08;8.93;;;2.53;;
17917;SDS011;9084;50.956;3.106;2023-03-23T16:58:36;3.30;;;2.10;;
17917;SDS011;9084;50.956;3.106;2023-03-23T17:01:03;7.22;;;2.10;;
17917;SDS011;9084;50.956;3.106;2023-03-23T17:03:29;5.30;;;2.17;;
17917;SDS011;9084;50.956;3.106;2023-03-23T17:06:00;5.95;;;2.30;;
17917;SDS011;9084;50.956;3.106;2023-03-23T17:08:28;4.82;;;2.00;;
17917;SDS011;9084;50.956;3.106;2023-03-23T17:10:56;5.20;;;2.58;;
17917;SDS011;9084;50.956;3.106;2023-03-23T17:13:22;4.85;;;2.28;;
17917;SDS011;9084;50.956;3.106;2023-03-23T17:15:54;6.30;;;2.90;;
17917;SDS011;9084;50.956;3.106;2023-03-23T17:18:23;6.22;;;2.55;;
17917;SDS011;9084;50.956;3.106;2023-03-23T17:20:51;7.00;;;2.78;;
17917;SDS011;9084;50.956;3.106;2023-03-23T17:23:17;6.72;;;2.78;;
17917;SDS011;9084;50.956;3.106;2023-03-23T17:25:43;6.97;;;2.40;;
17917;SDS011;9084;50.956;3.106;2023-03-23T17:28:10;6.55;;;2.88;;
17917;SDS011;9084;50.956;3.106;2023-03-23T17:30:40;7.47;;;2.47;;
17917;SDS011;9084;50.956;3.106;2023-03-23T17:33:06;7.63;;;3.20;;
17917;SDS011;9084;50.956;3.106;2023-03-23T17:35:40;7.55;;;3.38;;
17917;SDS011;9084;50.956;3.106;2023-03-23T17:38:06;10.07;;;3.53;;
17917;SDS011;9084;50.956;3.106;2023-03-23T17:40:32;8.02;;;2.60;;
17917;SDS011;9084;50.956;3.106;2023-03-23T17:42:57;8.65;;;2.97;;
17917;SDS011;9084;50.956;3.106;2023-03-23T17:45:23;5.95;;;2.70;;
17917;SDS011;9084;50.956;3.106;2023-03-23T17:47:49;9.52;;;3.10;;
17917;SDS011;9084;50.956;3.106;2023-03-23T17:50:19;7.78;;;3.00;;
17917;SDS011;9084;50.956;3.106;2023-03-23T17:52:47;8.52;;;2.80;;